Time;durP1;ratioP1;P1;durP2;ratioP2;P2;SDS_P1;SDS_P2;PMS_P1;PMS_P2;Temp;Humidity;BMP_temperature;BMP_pressure;BME280_temperature;BME280_humidity;BME280_pressure;Samples;Min_cycle;Max_cycle;Signal;HPM_P1;HPM_P2
2024/01/12 00:00:35;;;;;;;24.58;11.68;;;;;;;2.84;46.88;100615.97;5086887;28;20022;-75
2024/01/12 00:03:02;;;;;;;20.27;12.68;;;;;;;2.70;46.64;100602.50;5086601;28;20040;-77
2024/01/12 00:05:28;;;;;;;21.35;12.48;;;;;;;2.78;46.45;100626.91;5086980;28;20420;-75
2024/01/12 00:07:54;;;;;;;21.90;12.52;;;;;;;2.68;46.71;100604.38;5089309;28;20042;-77
2024/01/12 00:10:19;;;;;;;24.95;12.30;;;;;;;2.81;46.36;100626.75;5090787;28;20020;-78
2024/01/12 00:12:45;;;;;;;18.58;11.40;;;;;;;2.67;46.12;100614.16;5090734;28;20403;-76
2024/01/12 00:15:11;;;;;;;17.38;11.38;;;;;;;2.75;46.46;100632.38;5091068;28;20024;-79
2024/01/12 00:17:36;;;;;;;16.02;11.30;;;;;;;2.56;46.17;100594.38;5090767;28;20040;-76
2024/01/12 00:20:04;;;;;;;18.90;11.40;;;;;;;2.74;46.33;100620.00;5090920;28;20023;-75
2024/01/12 00:22:30;;;;;;;23.10;11.63;;;;;;;2.72;45.86;100627.22;5092419;28;20090;-77
2024/01/12 00:24:55;;;;;;;18.10;11.98;;;;;;;2.70;46.04;100623.75;5091892;28;20480;-77
2024/01/12 00:27:21;;;;;;;27.13;12.75;;;;;;;2.53;46.12;100606.00;5103800;28;20047;-79
2024/01/12 00:29:46;;;;;;;27.65;12.88;;;;;;;2.69;46.10;100630.00;5106491;28;20035;-78
2024/01/12 00:32:12;;;;;;;17.55;12.38;;;;;;;2.73;46.03;100627.13;5094637;28;20024;-76
2024/01/12 00:34:37;;;;;;;22.52;11.95;;;;;;;2.74;46.01;100630.63;5089053;28;20131;-75
2024/01/12 00:37:03;;;;;;;17.60;10.65;;;;;;;2.64;45.90;100618.75;5089920;28;20066;-75
2024/01/12 00:39:29;;;;;;;25.00;11.95;;;;;;;2.57;45.75;100617.31;5089812;28;20491;-77
2024/01/12 00:41:54;;;;;;;32.03;12.80;;;;;;;2.64;45.91;100616.94;5090577;28;20103;-76
2024/01/12 00:44:21;;;;;;;21.60;11.70;;;;;;;2.40;45.99;100569.50;5090234;28;20421;-74
2024/01/12 00:46:50;;;;;;;23.45;11.38;;;;;;;2.52;45.63;100587.50;5089457;28;20046;-77
2024/01/12 00:49:19;;;;;;;18.05;11.88;;;;;;;2.56;45.93;100599.69;5089492;28;20020;-78
2024/01/12 00:51:45;;;;;;;28.88;14.18;;;;;;;2.46;45.91;100577.16;5090114;28;20085;-77
2024/01/12 00:54:11;;;;;;;22.90;13.07;;;;;;;2.62;46.20;100599.38;5089589;28;20161;-77
2024/01/12 00:56:37;;;;;;;23.15;11.82;;;;;;;2.63;45.93;100593.16;5090115;28;20028;-76
2024/01/12 00:59:03;;;;;;;21.63;12.15;;;;;;;2.53;46.08;100590.06;5089807;28;20466;-78
2024/01/12 01:01:29;;;;;;;22.48;12.90;;;;;;;2.33;45.77;100552.16;5089464;28;20424;-77
2024/01/12 01:03:55;;;;;;;23.08;13.13;;;;;;;2.52;46.07;100576.88;5089746;28;20032;-76
2024/01/12 01:06:20;;;;;;;19.48;12.32;;;;;;;2.58;45.97;100584.53;5089909;28;20038;-75
2024/01/12 01:08:48;;;;;;;23.90;12.30;;;;;;;2.61;45.82;100581.72;5087746;28;20090;-77
2024/01/12 01:11:14;;;;;;;22.13;12.25;;;;;;;2.59;46.05;100578.28;5091175;28;20062;-76
2024/01/12 01:13:39;;;;;;;26.42;12.75;;;;;;;2.53;45.78;100575.94;5090751;28;20032;-76
2024/01/12 01:16:05;;;;;;;19.30;11.50;;;;;;;2.60;46.20;100582.69;5098442;28;20093;-79
2024/01/12 01:18:32;;;;;;;21.85;12.13;;;;;;;2.66;45.94;100580.56;5101008;28;20024;-80
2024/01/12 01:20:57;;;;;;;22.00;12.30;;;;;;;2.37;45.84;100548.44;5089933;28;20034;-76
2024/01/12 01:23:23;;;;;;;22.60;12.73;;;;;;;2.63;45.54;100579.88;5089422;28;20429;-75
2024/01/12 01:25:49;;;;;;;21.90;12.20;;;;;;;2.68;45.69;100583.16;5089281;28;20570;-77
2024/01/12 01:28:15;;;;;;;23.23;12.35;;;;;;;2.70;45.37;100571.50;5089299;28;20111;-76
2024/01/12 01:30:40;;;;;;;18.27;10.70;;;;;;;2.65;45.66;100578.00;5088900;28;20107;-78
2024/01/12 01:33:06;;;;;;;16.50;10.88;;;;;;;2.40;45.37;100529.69;5088919;28;20112;-76
2024/01/12 01:35:32;;;;;;;20.63;12.80;;;;;;;2.62;45.23;100584.31;5069419;28;20083;-75
2024/01/12 01:37:57;;;;;;;23.50;12.57;;;;;;;2.44;45.84;100568.44;5088617;28;20024;-76
2024/01/12 01:40:23;;;;;;;20.67;12.35;;;;;;;2.52;46.05;100583.03;5088528;28;20028;-78
2024/01/12 01:42:49;;;;;;;18.90;11.88;;;;;;;2.60;45.85;100577.38;5088949;28;20385;-76
2024/01/12 01:45:14;;;;;;;20.13;11.27;;;;;;;2.59;45.89;100573.00;5089018;28;20024;-77
2024/01/12 01:47:41;;;;;;;19.67;11.98;;;;;;;2.62;45.90;100578.16;5088769;28;20031;-75
2024/01/12 01:50:07;;;;;;;18.45;11.43;;;;;;;2.57;45.62;100553.59;5088760;28;20417;-77
2024/01/12 01:52:33;;;;;;;18.13;10.25;;;;;;;2.65;45.80;100578.00;5087729;28;20127;-75
2024/01/12 01:54:58;;;;;;;23.77;13.02;;;;;;;2.61;45.57;100579.06;5089307;28;20102;-76
2024/01/12 01:57:26;;;;;;;19.90;12.38;;;;;;;2.72;45.44;100590.03;5089428;28;20537;-76
2024/01/12 01:59:52;;;;;;;20.05;12.45;;;;;;;2.73;45.52;100594.38;5090647;28;20032;-75
2024/01/12 02:02:17;;;;;;;18.65;12.00;;;;;;;2.76;45.67;100602.19;5089772;28;20093;-75
2024/01/12 02:04:43;;;;;;;28.63;12.38;;;;;;;2.72;45.49;100590.03;5096335;28;20058;-78
2024/01/12 02:07:09;;;;;;;17.00;11.15;;;;;;;2.71;44.98;100609.53;5093614;28;20059;-76
2024/01/12 02:09:35;;;;;;;21.35;12.40;;;;;;;2.55;45.21;100595.28;5089308;28;20146;-76
2024/01/12 02:12:04;;;;;;;18.45;10.70;;;;;;;2.56;45.31;100600.56;5088422;28;20028;-77
2024/01/12 02:14:30;;;;;;;20.20;13.38;;;;;;;2.51;45.26;100597.25;5088185;28;20476;-76
2024/01/12 02:16:56;;;;;;;25.92;12.98;;;;;;;2.74;45.60;100617.34;5088528;28;20032;-79
2024/01/12 02:19:21;;;;;;;23.10;12.13;;;;;;;2.65;45.36;100599.22;5088082;28;20043;-77
2024/01/12 02:21:47;;;;;;;24.42;13.15;;;;;;;2.72;45.40;100620.06;5086834;28;20091;-75
2024/01/12 02:24:13;;;;;;;18.92;12.15;;;;;;;2.66;45.22;100598.31;5088254;28;20024;-77
2024/01/12 02:26:38;;;;;;;19.90;12.25;;;;;;;2.71;45.17;100604.25;5088541;28;20039;-75
2024/01/12 02:29:04;;;;;;;19.27;11.88;;;;;;;2.72;45.30;100595.34;5087903;28;20032;-76
2024/01/12 02:31:30;;;;;;;25.17;12.88;;;;;;;2.69;45.41;100603.47;5084408;28;20044;-76
2024/01/12 02:33:55;;;;;;;23.33;12.73;;;;;;;2.43;45.28;100567.56;5087944;28;20074;-74
2024/01/12 02:36:26;;;;;;;26.38;13.75;;;;;;;2.49;45.34;100588.50;5087893;28;20051;-76
2024/01/12 02:38:52;;;;;;;27.38;13.23;;;;;;;2.55;45.53;100614.75;5086724;28;20032;-75
2024/01/12 02:41:17;;;;;;;33.72;12.10;;;;;;;2.38;45.52;100595.28;5087878;28;20491;-77
2024/01/12 02:43:43;;;;;;;20.90;13.90;;;;;;;2.46;45.78;100604.56;5088152;28;20036;-76
2024/01/12 02:46:08;;;;;;;27.98;13.95;;;;;;;2.35;45.94;100595.41;5088641;28;20060;-75
2024/01/12 02:48:34;;;;;;;25.20;13.52;;;;;;;2.39;45.88;100620.84;5087985;28;20115;-75
2024/01/12 02:50:59;;;;;;;21.02;13.35;;;;;;;2.31;46.31;100623.88;5088315;28;20035;-77
2024/01/12 02:53:24;;;;;;;23.92;13.65;;;;;;;2.26;46.16;100625.03;5091022;28;20050;-78
2024/01/12 02:55:50;;;;;;;26.60;13.93;;;;;;;2.06;46.56;100595.00;5093451;28;20028;-75
2024/01/12 02:58:16;;;;;;;25.48;13.43;;;;;;;2.10;46.48;100612.50;5088585;28;20035;-76
2024/01/12 03:00:41;;;;;;;24.50;13.40;;;;;;;1.99;46.64;100609.47;5092079;28;20024;-76
2024/01/12 03:03:07;;;;;;;25.90;14.88;;;;;;;2.04;46.64;100628.72;5090033;28;20028;-77
2024/01/12 03:05:32;;;;;;;30.10;13.18;;;;;;;2.01;46.89;100638.59;5087346;28;20028;-75
2024/01/12 03:07:58;;;;;;;25.55;14.43;;;;;;;1.97;47.01;100637.88;5087765;28;20389;-78
2024/01/12 03:10:23;;;;;;;21.90;12.10;;;;;;;1.95;47.21;100637.09;5087818;28;20039;-78
2024/01/12 03:12:49;;;;;;;21.58;12.60;;;;;;;1.91;47.17;100632.84;5087181;28;20043;-77
2024/01/12 03:15:14;;;;;;;23.58;14.05;;;;;;;1.80;47.24;100613.06;5087813;28;20047;-77
2024/01/12 03:17:40;;;;;;;24.42;14.45;;;;;;;1.90;47.49;100633.78;5084664;28;20040;-77
2024/01/12 03:20:08;;;;;;;24.20;13.43;;;;;;;1.80;47.68;100613.94;5087331;28;20103;-79
2024/01/12 03:22:34;;;;;;;21.42;12.07;;;;;;;1.68;47.98;100609.19;5087030;28;20464;-77
2024/01/12 03:25:00;;;;;;;25.88;14.13;;;;;;;1.87;48.21;100638.34;5087364;28;20404;-76
2024/01/12 03:27:27;;;;;;;27.83;15.05;;;;;;;1.81;48.04;100625.38;5087474;28;20120;-76
2024/01/12 03:29:52;;;;;;;36.58;14.05;;;;;;;1.84;48.42;100636.69;5087210;28;20964;-76
2024/01/12 03:32:18;;;;;;;29.65;15.35;;;;;;;1.94;48.26;100638.00;5087591;28;20111;-77
2024/01/12 03:34:44;;;;;;;27.20;14.40;;;;;;;2.00;47.97;100643.03;5087754;28;20135;-75
2024/01/12 03:37:09;;;;;;;35.25;17.27;;;;;;;2.01;48.34;100647.41;5089151;28;20522;-78
2024/01/12 03:39:35;;;;;;;25.58;14.82;;;;;;;2.01;48.13;100622.69;5088021;28;20024;-75
2024/01/12 03:42:00;;;;;;;32.50;16.58;;;;;;;2.20;48.08;100631.50;5093656;28;20035;-77
2024/01/12 03:44:26;;;;;;;31.17;15.00;;;;;;;2.29;47.79;100623.13;5103874;28;20024;-77
2024/01/12 03:46:51;;;;;;;26.10;15.02;;;;;;;2.46;47.76;100652.34;5093267;28;20016;-76
2024/01/12 03:49:18;;;;;;;42.47;16.23;;;;;;;2.57;47.49;100671.28;5090832;28;20123;-76
2024/01/12 03:51:44;;;;;;;31.10;16.45;;;;;;;2.63;47.70;100663.00;5091220;28;20024;-79
2024/01/12 03:54:10;;;;;;;26.42;15.38;;;;;;;2.77;47.60;100672.97;5089806;28;20032;-75
2024/01/12 03:56:35;;;;;;;30.60;15.68;;;;;;;2.67;47.72;100642.47;5091006;28;21054;-75
2024/01/12 03:59:01;;;;;;;29.40;16.38;;;;;;;2.84;47.38;100655.81;5091168;28;20032;-78
2024/01/12 04:01:26;;;;;;;27.88;16.48;;;;;;;2.85;47.30;100664.63;5090807;28;20078;-75
2024/01/12 04:03:52;;;;;;;32.40;15.90;;;;;;;2.89;47.47;100663.53;5091154;28;20028;-77
2024/01/12 04:06:18;;;;;;;30.67;16.40;;;;;;;2.78;47.48;100649.94;5091015;28;20595;-75
2024/01/12 04:08:44;;;;;;;32.22;15.32;;;;;;;2.87;47.45;100658.31;5091092;28;20106;-78
2024/01/12 04:11:20;;;;;;;30.33;15.88;;;;;;;2.84;47.51;100666.44;5091459;28;20123;-77
2024/01/12 04:13:45;;;;;;;32.53;16.95;;;;;;;2.73;47.96;100642.19;5091087;28;20111;-77
2024/01/12 04:16:11;;;;;;;29.80;17.45;;;;;;;2.63;48.09;100643.59;5091205;28;20516;-77
2024/01/12 04:18:36;;;;;;;27.65;16.05;;;;;;;2.83;48.30;100667.38;5090849;28;20035;-76
2024/01/12 04:21:03;;;;;;;31.48;15.98;;;;;;;2.88;48.22;100672.44;5091217;28;20036;-79
2024/01/12 04:23:29;;;;;;;28.70;15.95;;;;;;;2.76;47.99;100642.03;5090407;28;20055;-76
2024/01/12 04:25:54;;;;;;;27.60;16.73;;;;;;;2.91;47.68;100664.31;5092712;28;20064;-76
2024/01/12 04:28:20;;;;;;;30.67;16.25;;;;;;;2.93;47.58;100658.00;5091561;28;20455;-75
2024/01/12 04:30:45;;;;;;;27.08;15.55;;;;;;;2.82;47.69;100647.03;5096134;28;20091;-76
2024/01/12 04:33:11;;;;;;;30.38;15.95;;;;;;;2.97;47.59;100664.00;5099547;28;20016;-79
2024/01/12 04:35:36;;;;;;;29.67;16.92;;;;;;;2.88;47.57;100670.66;5092236;28;20170;-75
2024/01/12 04:38:02;;;;;;;37.03;18.65;;;;;;;2.70;47.79;100682.16;5089589;28;20021;-76
2024/01/12 04:40:27;;;;;;;46.13;19.33;;;;;;;2.82;47.71;100702.81;5089917;28;20158;-76
2024/01/12 04:42:53;;;;;;;33.25;17.05;;;;;;;2.75;48.10;100712.88;5090008;28;20028;-76
2024/01/12 04:45:18;;;;;;;36.10;17.13;;;;;;;2.76;48.05;100708.41;5089498;28;20040;-73
2024/01/12 04:47:44;;;;;;;41.83;18.15;;;;;;;2.81;47.86;100725.00;5089637;28;20027;-76
2024/01/12 04:50:09;;;;;;;35.17;16.77;;;;;;;2.75;47.98;100712.03;5087303;28;20424;-73
2024/01/12 04:52:35;;;;;;;35.97;16.83;;;;;;;2.55;48.23;100688.22;5089357;28;20058;-76
2024/01/12 04:55:00;;;;;;;37.15;18.55;;;;;;;2.75;48.37;100722.66;5088443;28;20093;-74
2024/01/12 04:57:26;;;;;;;40.40;17.30;;;;;;;2.77;48.23;100723.44;5088900;28;20024;-75
2024/01/12 04:59:51;;;;;;;33.55;17.35;;;;;;;2.79;48.48;100713.59;5089495;28;20118;-76
2024/01/12 05:02:17;;;;;;;45.90;16.85;;;;;;;2.85;48.61;100718.59;5089581;28;20373;-74
2024/01/12 05:04:42;;;;;;;36.08;18.23;;;;;;;3.00;48.07;100733.78;5089382;28;20028;-74
2024/01/12 05:07:08;;;;;;;35.55;19.55;;;;;;;3.05;48.10;100730.94;5088978;28;20028;-74
2024/01/12 05:09:33;;;;;;;38.75;17.58;;;;;;;3.08;48.08;100752.91;5089110;28;20059;-74
2024/01/12 05:12:03;;;;;;;44.28;17.58;;;;;;;3.03;48.18;100749.59;5069860;28;20344;-74
2024/01/12 05:14:28;;;;;;;36.70;18.85;;;;;;;2.97;48.10;100747.22;5089803;28;20083;-74
2024/01/12 05:16:54;;;;;;;53.45;18.45;;;;;;;2.98;48.77;100754.28;5087173;28;20130;-76
2024/01/12 05:19:19;;;;;;;44.67;18.40;;;;;;;2.70;49.56;100714.91;5089912;28;20479;-74
2024/01/12 05:21:45;;;;;;;36.92;18.95;;;;;;;2.87;50.40;100763.69;5093098;28;20023;-75
2024/01/12 05:24:10;;;;;;;35.20;16.33;;;;;;;2.84;51.05;100758.53;5098328;28;20028;-75
2024/01/12 05:26:36;;;;;;;35.67;17.40;;;;;;;2.84;51.61;100769.16;5096024;28;20052;-75
2024/01/12 05:29:02;;;;;;;32.78;17.00;;;;;;;2.49;51.36;100715.03;5089615;28;20031;-74
2024/01/12 05:31:27;;;;;;;30.92;18.88;;;;;;;2.73;51.35;100761.69;5088418;28;20089;-73
2024/01/12 05:33:53;;;;;;;40.92;19.33;;;;;;;2.79;51.41;100768.50;5086186;28;20043;-75
2024/01/12 05:36:18;;;;;;;36.97;19.05;;;;;;;2.66;51.55;100760.25;5088870;28;20110;-74
2024/01/12 05:38:44;;;;;;;42.13;19.60;;;;;;;2.69;52.38;100770.75;5088764;28;20080;-73
2024/01/12 05:41:10;;;;;;;42.42;19.58;;;;;;;2.60;53.31;100772.00;5088822;28;20145;-76
2024/01/12 05:43:36;;;;;;;39.85;19.73;;;;;;;2.41;54.67;100759.66;5088524;28;20397;-75
2024/01/12 05:46:01;;;;;;;32.80;19.35;;;;;;;2.44;55.28;100763.03;5089021;28;20050;-76
2024/01/12 05:48:27;;;;;;;39.85;20.58;;;;;;;2.28;57.11;100782.38;5088878;28;20476;-77
2024/01/12 05:50:52;;;;;;;45.47;20.08;;;;;;;2.22;57.81;100769.38;5088557;28;20028;-76
2024/01/12 05:53:21;;;;;;;45.78;20.27;;;;;;;2.25;58.13;100778.06;5088502;28;20044;-75
2024/01/12 05:55:48;;;;;;;44.25;22.58;;;;;;;2.22;58.65;100780.00;5088769;28;20043;-78
2024/01/12 05:58:13;;;;;;;35.92;19.48;;;;;;;2.27;59.19;100788.59;5087104;28;20123;-75
2024/01/12 06:00:39;;;;;;;48.88;21.58;;;;;;;2.26;59.19;100792.22;5088883;28;20099;-79
2024/01/12 06:03:04;;;;;;;49.97;21.85;;;;;;;2.27;59.68;100804.53;5088318;28;20380;-75
2024/01/12 06:05:30;;;;;;;33.97;20.75;;;;;;;2.30;60.45;100794.63;5088555;28;20024;-75
2024/01/12 06:07:55;;;;;;;42.80;23.10;;;;;;;2.09;60.24;100754.03;5094551;28;20028;-76
2024/01/12 06:10:21;;;;;;;34.70;18.77;;;;;;;2.33;60.59;100802.47;5095874;28;20714;-76
2024/01/12 06:12:46;;;;;;;37.50;20.90;;;;;;;2.24;60.46;100780.78;5088520;28;20373;-76
2024/01/12 06:15:12;;;;;;;39.35;21.58;;;;;;;2.38;60.45;100803.13;5088181;28;20031;-75
2024/01/12 06:17:38;;;;;;;39.03;21.17;;;;;;;2.30;60.77;100804.38;5088200;28;20028;-77
2024/01/12 06:20:04;;;;;;;44.58;24.35;;;;;;;2.23;60.86;100781.72;5088272;28;20106;-78
2024/01/12 06:22:30;;;;;;;46.28;22.50;;;;;;;2.41;60.51;100802.13;5086003;28;20060;-73
2024/01/12 06:24:55;;;;;;;46.30;26.50;;;;;;;2.50;60.61;100820.28;5087971;28;20055;-75
2024/01/12 06:27:21;;;;;;;45.20;23.40;;;;;;;2.56;60.44;100817.38;5087205;28;20030;-73
2024/01/12 06:29:46;;;;;;;46.40;24.35;;;;;;;2.53;60.20;100822.81;5088300;28;20119;-74
2024/01/12 06:32:12;;;;;;;40.25;21.20;;;;;;;2.65;59.66;100824.91;5088291;28;20035;-76
2024/01/12 06:34:40;;;;;;;41.13;21.52;;;;;;;2.49;59.50;100813.25;5087273;28;20573;-75
2024/01/12 06:37:05;;;;;;;40.75;24.40;;;;;;;2.53;59.42;100828.13;5087391;28;20494;-76
2024/01/12 06:39:31;;;;;;;39.55;21.98;;;;;;;2.35;59.28;100818.34;5086561;28;20040;-75
2024/01/12 06:41:58;;;;;;;54.30;23.92;;;;;;;2.40;59.62;100832.25;5087464;28;20115;-75
2024/01/12 06:44:24;;;;;;;43.47;22.70;;;;;;;2.36;59.62;100830.66;5087801;28;20217;-76
2024/01/12 06:46:49;;;;;;;43.50;22.15;;;;;;;2.02;59.86;100799.44;5088293;28;20115;-75
2024/01/12 06:49:15;;;;;;;50.15;24.38;;;;;;;2.26;60.40;100851.44;5088015;28;20035;-76
2024/01/12 06:51:40;;;;;;;43.90;23.27;;;;;;;2.14;60.38;100836.91;5088392;28;20020;-76
2024/01/12 06:54:06;;;;;;;42.15;22.15;;;;;;;2.24;60.70;100852.41;5088512;28;20521;-76
2024/01/12 06:56:32;;;;;;;36.58;20.05;;;;;;;2.26;60.76;100846.16;5099061;28;20108;-76
2024/01/12 06:58:58;;;;;;;46.30;22.10;;;;;;;2.33;60.54;100847.56;5095508;28;20028;-75
2024/01/12 07:01:24;;;;;;;44.97;21.48;;;;;;;2.33;60.74;100846.72;5086580;28;20549;-76
2024/01/12 07:03:51;;;;;;;36.15;20.60;;;;;;;1.88;60.37;100764.72;5084861;28;20119;-74
2024/01/12 07:06:17;;;;;;;57.70;26.20;;;;;;;2.32;60.31;100829.09;5086913;28;20023;-74
2024/01/12 07:08:42;;;;;;;44.50;22.10;;;;;;;2.38;60.80;100856.22;5087452;28;20032;-75
2024/01/12 07:11:08;;;;;;;46.50;24.15;;;;;;;2.34;60.32;100848.44;5087501;28;20106;-73
2024/01/12 07:13:34;;;;;;;47.70;23.85;;;;;;;2.37;60.41;100858.91;5087313;28;20058;-74
2024/01/12 07:15:59;;;;;;;48.00;23.75;;;;;;;2.36;60.64;100867.81;5085948;28;20819;-78
2024/01/12 07:18:25;;;;;;;43.30;23.08;;;;;;;2.38;60.64;100860.66;5089558;28;20051;-76
2024/01/12 07:20:51;;;;;;;42.13;22.50;;;;;;;2.46;60.77;100867.34;5091125;28;20021;-75
2024/01/12 07:23:16;;;;;;;48.00;24.50;;;;;;;2.43;60.59;100874.56;5090255;28;20036;-74
2024/01/12 07:25:42;;;;;;;46.55;25.85;;;;;;;2.47;60.55;100865.56;5091683;28;20031;-76
2024/01/12 07:28:07;;;;;;;51.25;26.42;;;;;;;2.65;60.53;100892.16;5091615;28;20112;-76
2024/01/12 07:30:33;;;;;;;46.95;24.52;;;;;;;2.77;60.28;100900.50;5091436;28;20099;-75
2024/01/12 07:32:59;;;;;;;45.53;23.00;;;;;;;2.86;59.88;100900.06;5091390;28;20446;-74
2024/01/12 07:35:25;;;;;;;47.42;24.80;;;;;;;2.75;59.65;100897.91;5091441;28;20056;-74
2024/01/12 07:37:50;;;;;;;57.65;27.08;;;;;;;2.91;59.92;100903.38;5092183;28;20027;-74
2024/01/12 07:40:17;;;;;;;48.83;24.05;;;;;;;2.98;59.60;100911.00;5091421;28;20152;-75
2024/01/12 07:42:43;;;;;;;44.28;23.63;;;;;;;2.85;59.11;100899.22;5091767;28;20111;-74
2024/01/12 07:45:10;;;;;;;42.33;22.42;;;;;;;2.98;59.27;100923.44;5092675;28;20035;-75
2024/01/12 07:47:36;;;;;;;50.90;22.25;;;;;;;3.08;58.91;100917.63;5096995;28;20047;-76
2024/01/12 07:50:01;;;;;;;46.72;23.15;;;;;;;3.10;58.44;100925.53;5093044;28;20030;-74
2024/01/12 07:52:27;;;;;;;43.55;23.67;;;;;;;3.13;58.51;100926.25;5091491;28;20028;-75
2024/01/12 07:54:53;;;;;;;47.42;25.75;;;;;;;3.18;58.60;100918.91;5088378;28;20598;-73
2024/01/12 07:57:18;;;;;;;52.40;23.50;;;;;;;3.33;57.98;100943.06;5089145;28;20035;-74
2024/01/12 07:59:44;;;;;;;48.88;23.05;;;;;;;3.21;58.32;100924.09;5091102;28;20020;-74
2024/01/12 08:02:09;;;;;;;47.17;25.05;;;;;;;3.41;57.86;100940.91;5090974;28;20024;-75
2024/01/12 08:04:37;;;;;;;43.97;23.42;;;;;;;3.51;57.80;100939.56;5090886;28;20109;-75
2024/01/12 08:07:03;;;;;;;49.20;23.92;;;;;;;3.49;57.67;100933.41;5090999;28;20039;-80
2024/01/12 08:09:29;;;;;;;51.22;23.35;;;;;;;3.47;57.67;100914.03;5091199;28;20028;-75
2024/01/12 08:11:54;;;;;;;48.75;22.90;;;;;;;3.69;57.41;100930.69;5090910;28;20024;-73
2024/01/12 08:14:20;;;;;;;51.95;21.90;;;;;;;3.73;57.19;100942.91;5088871;28;20061;-74
2024/01/12 08:16:47;;;;;;;39.55;22.58;;;;;;;3.65;57.27;100927.31;5090907;28;20111;-75
2024/01/12 08:19:12;;;;;;;44.17;25.20;;;;;;;3.78;56.97;100948.88;5091749;28;20024;-75
2024/01/12 08:21:38;;;;;;;52.25;23.85;;;;;;;3.89;57.20;100962.50;5091799;28;20036;-75
2024/01/12 08:24:03;;;;;;;47.15;24.58;;;;;;;3.94;56.73;100957.84;5091791;28;20020;-74
2024/01/12 08:26:29;;;;;;;40.95;22.40;;;;;;;4.07;56.80;100958.06;5092152;28;20035;-74
2024/01/12 08:28:56;;;;;;;57.17;25.23;;;;;;;3.84;56.79;100913.97;5091025;28;20476;-75
2024/01/12 08:31:22;;;;;;;58.05;23.88;;;;;;;4.06;56.84;100957.22;5091328;28;20020;-75
2024/01/12 08:33:49;;;;;;;56.75;23.33;;;;;;;4.23;56.34;100969.69;5096897;28;20070;-74
2024/01/12 08:36:15;;;;;;;34.42;20.20;;;;;;;4.29;56.77;100978.22;5095105;28;20044;-74
2024/01/12 08:38:41;;;;;;;50.72;21.33;;;;;;;4.29;56.62;100974.72;5090207;28;20059;-76
2024/01/12 08:41:07;;;;;;;41.15;19.92;;;;;;;4.30;56.69;100971.97;5090701;28;20024;-76
2024/01/12 08:43:32;;;;;;;42.50;22.35;;;;;;;4.15;56.60;100950.59;5090607;28;20609;-75
2024/01/12 08:45:58;;;;;;;48.22;21.42;;;;;;;4.35;57.01;100974.41;5090229;28;20034;-76
2024/01/12 08:48:23;;;;;;;38.30;18.23;;;;;;;4.30;56.58;100982.63;5090396;28;20038;-74
2024/01/12 08:50:49;;;;;;;36.85;20.25;;;;;;;4.38;56.81;100982.22;5090077;28;20020;-74
2024/01/12 08:53:16;;;;;;;40.42;18.75;;;;;;;4.44;56.62;100987.25;5090139;28;20020;-72
2024/01/12 08:55:42;;;;;;;38.40;19.73;;;;;;;4.30;56.83;100966.66;5087535;28;20477;-73
2024/01/12 08:58:07;;;;;;;31.48;17.58;;;;;;;4.47;56.61;100983.56;5089801;28;20057;-74
2024/01/12 09:00:33;;;;;;;44.58;20.67;;;;;;;4.47;56.91;100975.56;5089522;28;20085;-75
2024/01/12 09:02:58;;;;;;;34.95;18.10;;;;;;;4.47;56.65;100986.22;5089869;28;20043;-74
2024/01/12 09:05:24;;;;;;;67.63;23.27;;;;;;;4.25;57.05;100949.19;5087663;28;20503;-76
2024/01/12 09:07:49;;;;;;;40.42;20.15;;;;;;;4.44;56.69;100983.72;5090117;28;20595;-74
2024/01/12 09:10:15;;;;;;;36.45;21.05;;;;;;;4.44;56.87;100991.72;5089929;28;20085;-74
2024/01/12 09:12:40;;;;;;;42.45;19.70;;;;;;;4.30;57.57;100958.66;5089693;28;20027;-74
2024/01/12 09:15:08;;;;;;;42.42;20.85;;;;;;;4.60;57.10;100992.66;5090749;28;20038;-74
2024/01/12 09:17:34;;;;;;;39.08;19.40;;;;;;;4.65;56.84;101003.94;5071216;28;20044;-74
2024/01/12 09:20:00;;;;;;;44.38;21.58;;;;;;;4.57;56.63;101006.13;5090449;28;20106;-75
2024/01/12 09:22:25;;;;;;;42.35;19.48;;;;;;;4.63;56.40;100995.16;5094420;28;20492;-73
2024/01/12 09:24:52;;;;;;;42.35;18.50;;;;;;;4.64;56.39;101002.22;5094075;28;20027;-75
2024/01/12 09:27:17;;;;;;;36.60;19.00;;;;;;;4.67;56.45;100997.63;5089825;28;20411;-74
2024/01/12 09:29:43;;;;;;;38.10;21.48;;;;;;;4.78;56.41;100994.38;5087844;28;20035;-76
2024/01/12 09:32:09;;;;;;;36.63;19.98;;;;;;;4.76;56.26;100980.28;5089787;28;20028;-74
2024/01/12 09:34:34;;;;;;;35.53;19.83;;;;;;;4.81;56.06;100967.56;5089124;28;20051;-74
2024/01/12 09:37:00;;;;;;;46.22;22.25;;;;;;;4.92;56.21;100984.72;5069788;28;20469;-74
2024/01/12 09:39:25;;;;;;;65.00;23.65;;;;;;;5.01;56.58;100999.41;5088880;28;20032;-74
2024/01/12 09:41:59;;;;;;;58.63;22.30;;;;;;;5.14;56.25;100995.13;5088832;28;20051;-77
2024/01/12 09:44:27;;;;;;;44.47;18.67;;;;;;;5.25;55.84;100989.22;5088913;28;20073;-74
2024/01/12 09:46:57;;;;;;;41.92;19.65;;;;;;;5.32;55.41;100996.78;5089155;28;20035;-73
2024/01/12 09:49:24;;;;;;;40.55;21.45;;;;;;;5.34;55.32;100994.94;5089085;28;20035;-75
2024/01/12 09:51:50;;;;;;;46.05;19.90;;;;;;;5.48;55.48;101002.16;5088910;28;20599;-74
2024/01/12 09:54:19;;;;;;;34.65;19.58;;;;;;;5.45;54.68;101003.19;5089116;28;20119;-77
2024/01/12 09:56:44;;;;;;;45.35;21.38;;;;;;;5.36;55.13;100994.84;5088934;28;20027;-74
2024/01/12 09:59:11;;;;;;;39.28;19.13;;;;;;;5.44;54.73;101001.47;5088765;28;20474;-75
2024/01/12 10:01:43;;;;;;;41.53;21.55;;;;;;;5.50;55.00;101011.81;5089059;28;20028;-73
2024/01/12 10:04:09;;;;;;;;;;;;;;;5.59;54.54;101014.94;5090399;28;20024;-78
2024/01/12 10:06:37;;;;;;;36.95;19.27;;;;;;;5.45;54.32;101005.88;5089296;28;20372;-74
2024/01/12 10:09:03;;;;;;;35.97;17.58;;;;;;;5.33;54.52;101006.53;5089621;28;20111;-75
2024/01/12 10:11:29;;;;;;;41.05;18.55;;;;;;;5.23;54.63;101029.28;5094843;28;20035;-75
2024/01/12 10:13:55;;;;;;;38.90;21.30;;;;;;;5.11;55.06;101016.59;5093195;28;20089;-74
2024/01/12 10:16:22;;;;;;;55.67;20.95;;;;;;;5.18;55.12;101025.16;5090204;28;20032;-76
2024/01/12 10:18:48;;;;;;;49.13;21.77;;;;;;;5.09;55.36;100994.50;5092911;28;20124;-75
2024/01/12 10:21:14;;;;;;;47.80;19.10;;;;;;;5.25;54.93;101022.09;5088749;28;20174;-74
2024/01/12 10:23:41;;;;;;;38.13;19.38;;;;;;;5.36;54.96;101035.69;5088530;28;20116;-75
2024/01/12 10:26:08;;;;;;;39.65;22.60;;;;;;;5.42;54.72;101032.72;5088253;28;20510;-75
2024/01/12 10:28:34;;;;;;;44.20;22.10;;;;;;;5.41;54.44;101040.81;5088472;28;20063;-75
2024/01/12 10:31:09;;;;;;;38.72;20.25;;;;;;;5.43;54.71;101044.25;5088665;28;20071;-74
2024/01/12 10:33:35;;;;;;;36.20;19.30;;;;;;;5.48;54.66;101040.38;5085765;28;20031;-74
2024/01/12 10:36:04;;;;;;;48.28;19.27;;;;;;;5.48;54.64;101042.19;5088279;28;20047;-74
2024/01/12 10:38:31;;;;;;;37.47;19.15;;;;;;;5.52;54.64;101042.88;5088269;28;20445;-74
2024/01/12 10:41:00;;;;;;;42.80;22.83;;;;;;;5.41;54.25;101044.31;5088516;28;20487;-74
2024/01/12 10:43:27;;;;;;;38.22;20.00;;;;;;;5.22;54.51;101029.38;5087025;28;20019;-76
2024/01/12 10:45:57;;;;;;;48.58;24.67;;;;;;;5.36;54.85;101030.38;5088422;28;20513;-75
2024/01/12 10:48:27;;;;;;;42.60;20.35;;;;;;;5.49;54.67;101046.56;5088714;28;20023;-74
2024/01/12 10:50:59;;;;;;;54.95;23.30;;;;;;;5.57;54.78;101039.00;5089290;28;20031;-73
2024/01/12 10:53:29;;;;;;;45.58;24.70;;;;;;;5.70;54.86;101044.53;5088228;28;20020;-74
2024/01/12 10:55:58;;;;;;;46.65;22.60;;;;;;;5.73;54.24;101033.72;5088865;28;20028;-75
2024/01/12 10:58:24;;;;;;;45.30;21.40;;;;;;;5.71;53.94;101017.78;5088805;28;20494;-75
2024/01/12 11:00:50;;;;;;;35.40;19.90;;;;;;;5.96;53.67;101052.03;5090537;28;20430;-74
2024/01/12 11:03:16;;;;;;;46.85;20.67;;;;;;;6.01;53.23;101057.97;5089222;28;20024;-77
2024/01/12 11:05:47;;;;;;;47.10;19.55;;;;;;;6.06;53.10;101057.69;5085345;28;20044;-74
2024/01/12 11:08:14;;;;;;;38.10;19.15;;;;;;;5.95;53.00;101052.97;5087875;28;20024;-76
2024/01/12 11:10:46;;;;;;;38.50;18.90;;;;;;;5.86;52.51;101053.47;5084771;28;20043;-75